Portada
METAR-TAF:

METAR-TAF

Aeroports :

Gumru, Armènia

latitud: 40-45-01N, longitud: 043-51-33E, altitud: 1524 m

Observació

L'informe es va fer fa 29 minuts, a les 21:00 UTC
Vent 4 kt del Nord-Oest
Temperatura 19°C
Humitat 64%
Pressió 1013 hPa
Visibilitat: 9000 m
Núvols disperses a una alçada de 4600 ft, Cumulonimbus.

METAR: UDSG 182100Z 31004KT 9000 SCT046CB 19/12 Q1013 R02/CLRD70 NOSIG

Hora: 01:29 (21:29 UTC)

Pronòstic

L'informe es va fer fa 4 hores i 28 minuts, a les 17:01 UTC
Pronòstic vàlid del 18 a les 18 UTC al 19 a les 18 UTC
Vent 10 kt del Est/Nord-Est
Visibilitat 10 km o més
Escasses núvols a una alçada de 5000 ft
Temporalment
l' 18 a les 18 UTC al 18 a les 23 UTC
Vent 24 kt amb direcció variable
Escasses núvols a una alçada de 4000 ft, Cumulonimbus.

TAF: UDSG 181701Z 1818/1918 06010KT 9999 FEW050 TEMPO 1818/1823 VRB24KT FEW040CB

Observacions i pronòstics meteorològics de més de 4000 aeroports (METAR i TAF).

Les estacions disponibles són els punts grocs i vermells al mapa.

Posi el ratolí al punt desitjat per veure el nom de l'estació.

Feu clic per veure les observacions i els pronòstics meteorològics.

Per canviar el mapa: feu clic els botons verds amb una creu de color negre per apropar; al botó verd amb un guió per allunyar la imatge; o en les fletxes verdes per a mapes adjacents.


METAR-TAF: